Aérodrome :
LOGIN :

S'inscrire | Disclaimer

   EN    FR    IT 

 










Légende :    VFR   VFR Marginal   IFR   IFR Intensif   IFR Très Intensif
Visi : 
Plafond : 
>= 8 km
>= 3000ft
5 à 8 km
1000 à 3000 ft
1500m à 5 km
500 à 1000 ft
800 à 1500m
200 à 500 ft
< 800m
< 200 ft
Symboles :   Orages  Brouillard  Fortes neiges  Fortes précipitations  Vent > 20 kt
SIGMETs :   Divers  Orages  Givrage  Turbulence  Onde Orograph.  Cendres Volcan.







- Altitude de l'aérodrome : 80 ft
- Code IATA : LPL
- Voir les cartes d'approche


EGGP - Liverpool John Lennon

DERNIER METAR :
  • 190350Z 35006KT 9999 BKN043 06/01 Q1022

METARs EXPIRÉS :
  • 190320Z 33006KT 9999 BKN045 07/02 Q1022
  • 190250Z 35007KT 9999 BKN045 07/02 Q1022
  • 190220Z 01003KT 9999 BKN045 06/02 Q1022
  • 190150Z 35005KT 9999 BKN045 06/02 Q1022

TAF AMD TAF EGGP
Valide du 19 à 01h jusqu'au 20 à 00h UTC


190140Z 1901/1924 32005KT 9999 SCT045
BECMG 1918/1921 16010KT
TEMPO 1920/1924 8000 -RA
PROB30
TEMPO 1922/1924 RA BKN014
ATIS : +44 151 907 2000 (option 5 or ext 5150)
Météo : +44 871 750 5150
Pas de NOTAMs connus pour ce terrain.



MET'MAP, la Météo Aéronautique d'un coup d'oeil ! - Copyright ORBIFLY Décembre 2007 - Disclaimer

ORBIFLY MET'MAP TEAM :

Programmation & Développement : Alexandra Zaïnal
Conception & Développement : Baudouin d'Aumeries
Co-Programmation & Développement : Marc-Olivier Méhu
Soutien technique & logistique : Manuel Goepfert

Contact : metmap@orbifly.com




SOURCES & CREDITS :

   NOAA